Time;durP1;ratioP1;P1;durP2;ratioP2;P2;SDS_P1;SDS_P2;PMS_P1;PMS_P2;Temp;Humidity;BMP_temperature;BMP_pressure;BME280_temperature;BME280_humidity;BME280_pressure;Samples;Min_cycle;Max_cycle;Signal;HPM_P1;HPM_P2
2023/01/30 00:01:17;;;;;;;23.67;16.13;;;;;;;;;;5111708;28;20287;-75
2023/01/30 00:03:45;;;;;;;24.53;16.53;;;;;;;;;;5112180;28;20302;-76
2023/01/30 00:06:13;;;;;;;24.27;15.93;;;;;;;;;;5112265;28;20296;-75
2023/01/30 00:08:40;;;;;;;23.23;16.43;;;;;;;;;;5111972;28;20296;-75
2023/01/30 00:11:08;;;;;;;27.13;17.30;;;;;;;;;;5111474;28;20672;-76
2023/01/30 00:13:35;;;;;;;23.17;15.90;;;;;;;;;;5111820;28;20766;-76
2023/01/30 00:16:03;;;;;;;23.67;15.70;;;;;;;;;;5111585;28;20757;-75
2023/01/30 00:18:30;;;;;;;24.90;16.40;;;;;;;;;;5111923;28;20289;-76
2023/01/30 00:20:59;;;;;;;28.00;16.27;;;;;;;;;;5112464;28;20288;-76
2023/01/30 00:23:26;;;;;;;23.40;15.93;;;;;;;;;;5111733;28;20194;-76
2023/01/30 00:25:54;;;;;;;21.63;15.70;;;;;;;;;;5111625;28;20290;-75
2023/01/30 00:28:21;;;;;;;24.87;16.30;;;;;;;;;;5111200;28;20236;-75
2023/01/30 00:30:49;;;;;;;25.43;16.40;;;;;;;;;;5111662;28;20300;-75
2023/01/30 00:33:17;;;;;;;21.43;15.67;;;;;;;;;;5111767;28;20208;-76
2023/01/30 00:35:44;;;;;;;22.57;15.83;;;;;;;;;;5111834;28;20327;-75
2023/01/30 00:38:13;;;;;;;23.23;17.10;;;;;;;;;;5111413;28;20254;-75
2023/01/30 00:40:40;;;;;;;23.87;15.77;;;;;;;;;;5111484;28;20557;-75
2023/01/30 00:48:38;;;;;;;22.73;15.37;;;;;;;;;;5111606;28;20795;-76
2023/01/30 00:51:06;;;;;;;24.80;16.17;;;;;;;;;;5111348;28;20213;-76
2023/01/30 00:53:34;;;;;;;22.50;15.43;;;;;;;;;;5112033;28;20280;-76
2023/01/30 00:56:01;;;;;;;23.53;16.80;;;;;;;;;;5111708;28;20333;-76
2023/01/30 00:58:29;;;;;;;24.73;16.30;;;;;;;;;;5111430;28;20285;-75
2023/01/30 01:00:56;;;;;;;24.70;15.93;;;;;;;;;;5111524;28;20242;-76
2023/01/30 01:03:23;;;;;;;25.70;16.70;;;;;;;;;;5111293;28;20225;-75
2023/01/30 01:05:50;;;;;;;25.77;16.47;;;;;;;;;;5110883;28;20240;-76
2023/01/30 01:08:18;;;;;;;21.87;15.50;;;;;;;;;;5111221;28;20299;-76
2023/01/30 01:10:47;;;;;;;23.87;16.20;;;;;;;;;;5111072;28;20323;-76
2023/01/30 01:13:14;;;;;;;24.47;16.23;;;;;;;;;;5110891;28;20242;-75
2023/01/30 01:15:41;;;;;;;26.53;16.10;;;;;;;;;;5111531;28;20320;-76
2023/01/30 01:18:09;;;;;;;23.37;16.13;;;;;;;;;;5111402;28;20201;-76
2023/01/30 01:20:36;;;;;;;21.43;15.23;;;;;;;;;;5111162;28;20237;-76
2023/01/30 01:23:03;;;;;;;25.63;17.00;;;;;;;;;;5114358;28;20713;-76
2023/01/30 01:25:30;;;;;;;24.30;16.17;;;;;;;;;;5115143;28;20738;-76
2023/01/30 01:27:59;;;;;;;24.43;15.70;;;;;;;;;;5114461;28;20668;-76
2023/01/30 01:30:26;;;;;;;23.70;15.93;;;;;;;;;;5115337;28;20240;-75
2023/01/30 01:32:53;;;;;;;24.43;16.67;;;;;;;;;;5115559;28;20280;-75
2023/01/30 01:35:20;;;;;;;25.30;16.53;;;;;;;;;;5114774;28;20284;-76
2023/01/30 01:37:47;;;;;;;23.07;15.93;;;;;;;;;;5114189;28;20282;-75
2023/01/30 01:43:04;;;;;;;22.50;15.43;;;;;;;;;;5114621;28;20200;-75
2023/01/30 01:45:31;;;;;;;26.97;16.60;;;;;;;;;;5114253;28;20194;-75
2023/01/30 01:48:01;;;;;;;25.03;15.97;;;;;;;;;;5114340;28;20308;-75
2023/01/30 01:50:32;;;;;;;23.47;16.07;;;;;;;;;;5114889;28;20225;-76
2023/01/30 01:53:00;;;;;;;25.30;16.20;;;;;;;;;;5114739;28;20203;-76
2023/01/30 01:55:27;;;;;;;25.67;15.60;;;;;;;;;;5113970;28;20227;-76
2023/01/30 01:57:57;;;;;;;25.37;16.13;;;;;;;;;;5114042;28;20225;-75
2023/01/30 02:00:26;;;;;;;24.50;16.13;;;;;;;;;;5114470;28;20301;-76
2023/01/30 02:02:57;;;;;;;23.17;16.17;;;;;;;;;;5114607;27;20279;-76
2023/01/30 02:05:25;;;;;;;26.13;16.63;;;;;;;;;;5114369;28;20301;-76
2023/01/30 02:07:54;;;;;;;22.23;15.97;;;;;;;;;;5114237;28;20200;-76
2023/01/30 02:10:23;;;;;;;26.30;16.90;;;;;;;;;;5114083;28;20265;-75
2023/01/30 02:12:51;;;;;;;24.70;16.77;;;;;;;;;;5114051;28;20225;-76
2023/01/30 02:15:19;;;;;;;24.63;17.27;;;;;;;;;;5114157;28;20316;-76
2023/01/30 02:17:47;;;;;;;25.43;16.87;;;;;;;;;;5114285;28;20288;-75
2023/01/30 02:20:22;;;;;;;24.53;16.93;;;;;;;;;;5109167;28;20280;-76
2023/01/30 02:23:02;;;;;;;24.90;17.23;;;;;;;;;;5102786;28;20204;-75
2023/01/30 02:25:49;;;;;;;27.67;17.80;;;;;;;;;;5093795;28;20244;-76
2023/01/30 02:28:31;;;;;;;27.13;17.53;;;;;;;;;;5093531;28;20814;-77
2023/01/30 02:31:08;;;;;;;26.80;17.60;;;;;;;;;;5092275;28;20239;-76
2023/01/30 02:33:40;;;;;;;25.10;16.67;;;;;;;;;;5093149;28;20225;-76
2023/01/30 02:36:11;;;;;;;29.70;17.90;;;;;;;;;;5093496;28;20230;-76
2023/01/30 02:38:41;;;;;;;25.80;17.57;;;;;;;;;;5093077;28;20229;-76
2023/01/30 02:41:13;;;;;;;29.17;17.33;;;;;;;;;;5093141;28;20285;-77
2023/01/30 02:43:45;;;;;;;27.60;17.63;;;;;;;;;;5093444;28;20202;-76
2023/01/30 02:46:16;;;;;;;26.40;17.30;;;;;;;;;;5093882;28;20241;-76
2023/01/30 02:48:46;;;;;;;26.47;17.50;;;;;;;;;;5093288;28;20202;-76
2023/01/30 02:51:17;;;;;;;27.97;17.47;;;;;;;;;;5092987;28;20226;-76
2023/01/30 02:53:47;;;;;;;25.80;17.10;;;;;;;;;;5092743;28;20633;-76
2023/01/30 02:56:14;;;;;;;24.53;16.83;;;;;;;;;;5092896;28;20261;-76
2023/01/30 02:58:43;;;;;;;27.40;18.20;;;;;;;;;;5092860;28;20741;-75
2023/01/30 03:01:27;;;;;;;25.67;16.90;;;;;;;;;;5093670;28;20240;-76
2023/01/30 03:04:10;;;;;;;29.27;17.97;;;;;;;;;;5113169;28;20289;-75
2023/01/30 03:06:47;;;;;;;29.87;17.77;;;;;;;;;;5113037;28;20301;-76
2023/01/30 03:09:17;;;;;;;26.33;17.47;;;;;;;;;;5112833;28;20301;-76
2023/01/30 03:11:47;;;;;;;26.63;17.67;;;;;;;;;;5112832;28;20256;-76
2023/01/30 03:14:18;;;;;;;26.83;17.23;;;;;;;;;;5113514;28;20200;-76
2023/01/30 03:16:48;;;;;;;28.53;16.97;;;;;;;;;;5112586;28;20318;-75
2023/01/30 03:19:16;;;;;;;28.20;18.17;;;;;;;;;;5112855;28;20322;-76
2023/01/30 03:21:43;;;;;;;27.10;17.93;;;;;;;;;;5112897;28;20202;-77
2023/01/30 03:24:10;;;;;;;27.93;16.93;;;;;;;;;;5112676;28;20198;-76
2023/01/30 03:26:40;;;;;;;24.70;17.57;;;;;;;;;;5113083;28;20224;-76
2023/01/30 03:29:07;;;;;;;29.23;17.73;;;;;;;;;;5112656;28;20320;-76
2023/01/30 03:31:35;;;;;;;28.80;17.37;;;;;;;;;;5112680;28;20198;-76
2023/01/30 03:34:03;;;;;;;25.40;16.73;;;;;;;;;;5112890;28;20281;-76
2023/01/30 03:36:30;;;;;;;26.80;17.07;;;;;;;;;;5112458;28;20316;-75
2023/01/30 03:38:58;;;;;;;26.93;17.73;;;;;;;;;;5112368;28;20218;-76
2023/01/30 03:41:25;;;;;;;29.13;17.77;;;;;;;;;;5112531;28;20662;-76
2023/01/30 03:43:52;;;;;;;28.07;17.87;;;;;;;;;;5112269;28;20288;-75
2023/01/30 03:46:19;;;;;;;27.37;17.23;;;;;;;;;;5111823;28;20289;-76
2023/01/30 03:48:46;;;;;;;30.43;19.90;;;;;;;;;;5112374;28;20729;-76
2023/01/30 03:51:15;;;;;;;29.93;17.83;;;;;;;;;;5112264;28;20736;-76
2023/01/30 03:53:42;;;;;;;29.50;17.60;;;;;;;;;;5112866;28;20296;-76
2023/01/30 03:56:09;;;;;;;27.00;17.43;;;;;;;;;;5112143;28;20249;-76
2023/01/30 03:58:36;;;;;;;28.60;18.30;;;;;;;;;;5111910;28;20225;-76
2023/01/30 04:01:04;;;;;;;27.23;17.37;;;;;;;;;;5112204;28;20284;-76
2023/01/30 04:03:31;;;;;;;27.60;18.03;;;;;;;;;;5112323;28;20255;-76
2023/01/30 04:05:58;;;;;;;29.80;18.03;;;;;;;;;;5111510;28;20201;-76
2023/01/30 04:08:27;;;;;;;29.67;18.73;;;;;;;;;;5112080;28;20217;-76
2023/01/30 04:10:54;;;;;;;30.03;19.00;;;;;;;;;;5112154;28;20284;-76
2023/01/30 04:13:21;;;;;;;29.63;19.00;;;;;;;;;;5111934;28;20288;-76
2023/01/30 04:15:48;;;;;;;27.80;18.13;;;;;;;;;;5111509;28;20308;-76
2023/01/30 04:18:16;;;;;;;31.47;19.37;;;;;;;;;;5112459;28;20198;-76
2023/01/30 04:20:43;;;;;;;28.33;18.47;;;;;;;;;;5111623;28;20277;-76
2023/01/30 04:23:10;;;;;;;29.97;18.97;;;;;;;;;;5111651;28;20231;-76
2023/01/30 04:25:38;;;;;;;28.80;18.97;;;;;;;;;;5111798;28;20718;-75
2023/01/30 04:28:06;;;;;;;26.90;18.07;;;;;;;;;;5111716;28;20323;-76
2023/01/30 04:30:33;;;;;;;28.57;18.07;;;;;;;;;;5111943;28;20279;-76
2023/01/30 04:33:00;;;;;;;32.47;19.50;;;;;;;;;;5111844;28;20220;-76
2023/01/30 04:35:27;;;;;;;28.30;18.03;;;;;;;;;;5111209;28;20232;-75
2023/01/30 04:37:55;;;;;;;29.10;17.93;;;;;;;;;;5111736;28;20312;-76
2023/01/30 04:40:22;;;;;;;30.53;18.47;;;;;;;;;;5111672;28;20200;-76
2023/01/30 04:42:50;;;;;;;31.50;18.10;;;;;;;;;;5111690;28;20233;-76
2023/01/30 04:45:18;;;;;;;31.27;18.67;;;;;;;;;;5111823;28;20231;-76
2023/01/30 04:47:45;;;;;;;30.87;18.03;;;;;;;;;;5111438;28;20289;-76
2023/01/30 04:50:12;;;;;;;30.23;18.27;;;;;;;;;;5111865;28;20283;-76
2023/01/30 04:52:39;;;;;;;28.40;17.47;;;;;;;;;;5111818;28;20240;-76
2023/01/30 04:55:06;;;;;;;29.93;19.27;;;;;;;;;;5111590;28;20284;-76
2023/01/30 04:57:34;;;;;;;31.20;18.47;;;;;;;;;;5115244;28;20379;-76
2023/01/30 05:00:02;;;;;;;32.37;19.20;;;;;;;;;;5115766;28;20284;-75
2023/01/30 05:02:29;;;;;;;28.60;17.87;;;;;;;;;;5115627;28;20661;-76
2023/01/30 05:04:57;;;;;;;31.97;18.90;;;;;;;;;;5115239;28;20752;-76
2023/01/30 05:07:24;;;;;;;31.60;19.17;;;;;;;;;;5115935;28;20283;-76
2023/01/30 05:09:51;;;;;;;29.70;18.80;;;;;;;;;;5115258;28;20292;-76
2023/01/30 05:12:18;;;;;;;32.53;19.33;;;;;;;;;;5115458;28;20225;-75
2023/01/30 05:14:45;;;;;;;31.67;19.30;;;;;;;;;;5115446;28;20292;-76
2023/01/30 05:17:14;;;;;;;29.73;18.63;;;;;;;;;;5115061;28;20694;-75
2023/01/30 05:19:41;;;;;;;31.37;19.50;;;;;;;;;;5115224;28;20240;-75
2023/01/30 05:22:08;;;;;;;30.27;18.63;;;;;;;;;;5115033;28;20280;-76
2023/01/30 05:24:35;;;;;;;29.03;18.83;;;;;;;;;;5114935;28;20236;-76
2023/01/30 05:27:02;;;;;;;32.93;19.50;;;;;;;;;;5114867;28;20285;-75
2023/01/30 05:29:30;;;;;;;30.93;18.53;;;;;;;;;;5115049;28;20285;-76
2023/01/30 05:31:57;;;;;;;32.03;18.13;;;;;;;;;;5115226;28;20282;-76
2023/01/30 05:34:26;;;;;;;30.07;19.50;;;;;;;;;;5114967;28;20199;-76
2023/01/30 05:36:53;;;;;;;30.20;18.83;;;;;;;;;;5115416;28;20318;-76
2023/01/30 05:39:20;;;;;;;34.17;20.27;;;;;;;;;;5114716;28;20255;-76
2023/01/30 05:41:47;;;;;;;30.20;18.30;;;;;;;;;;5114843;28;20230;-75
2023/01/30 05:44:14;;;;;;;33.77;19.97;;;;;;;;;;5114737;27;20244;-75
2023/01/30 05:46:42;;;;;;;32.03;19.40;;;;;;;;;;5114398;28;20797;-77
2023/01/30 05:49:09;;;;;;;30.67;19.10;;;;;;;;;;5114862;28;20280;-76
2023/01/30 05:51:37;;;;;;;31.27;19.37;;;;;;;;;;5114866;27;20240;-76
2023/01/30 05:54:05;;;;;;;30.83;18.87;;;;;;;;;;5114825;28;20292;-75
2023/01/30 05:56:32;;;;;;;28.50;18.10;;;;;;;;;;5114652;28;20249;-76
2023/01/30 05:59:00;;;;;;;29.03;18.53;;;;;;;;;;5114131;28;20208;-74
2023/01/30 06:01:28;;;;;;;30.63;18.53;;;;;;;;;;5115009;28;20293;-75
2023/01/30 06:03:56;;;;;;;28.60;18.10;;;;;;;;;;5113976;28;20214;-75
2023/01/30 06:06:23;;;;;;;28.93;17.77;;;;;;;;;;5114033;28;20293;-75
2023/01/30 06:08:55;;;;;;;29.43;18.03;;;;;;;;;;5113609;28;20285;-75
2023/01/30 06:11:22;;;;;;;26.97;17.33;;;;;;;;;;5114057;28;20292;-76
2023/01/30 06:13:49;;;;;;;30.53;18.70;;;;;;;;;;5114428;28;20367;-76
2023/01/30 06:16:18;;;;;;;27.77;17.53;;;;;;;;;;5113805;28;20762;-76
2023/01/30 06:18:45;;;;;;;33.27;19.57;;;;;;;;;;5113912;28;20721;-76
2023/01/30 06:21:14;;;;;;;30.00;18.20;;;;;;;;;;5113694;28;20616;-76
2023/01/30 06:23:41;;;;;;;28.63;18.10;;;;;;;;;;5114042;28;20202;-75
2023/01/30 06:26:10;;;;;;;30.13;18.33;;;;;;;;;;5114366;28;20277;-75
2023/01/30 06:28:37;;;;;;;29.33;17.33;;;;;;;;;;5113789;28;20264;-77
2023/01/30 06:31:06;;;;;;;29.53;17.93;;;;;;;;;;5113854;28;20235;-76
2023/01/30 06:33:33;;;;;;;27.80;17.57;;;;;;;;;;5114065;28;20221;-76
2023/01/30 06:36:00;;;;;;;28.13;17.53;;;;;;;;;;5113844;28;20221;-76
2023/01/30 06:38:27;;;;;;;27.10;17.10;;;;;;;;;;5112405;27;20322;-75
2023/01/30 06:40:54;;;;;;;28.63;17.07;;;;;;;;;;5112258;28;20239;-76
2023/01/30 06:43:23;;;;;;;28.53;16.47;;;;;;;;;;5129778;27;20280;-76
2023/01/30 06:45:50;;;;;;;25.70;16.53;;;;;;;;;;5126551;27;20309;-76
2023/01/30 06:48:17;;;;;;;27.60;15.97;;;;;;;;;;5102104;28;20245;-76
2023/01/30 06:50:46;;;;;;;26.03;16.20;;;;;;;;;;5106920;28;20297;-76
2023/01/30 06:53:13;;;;;;;27.43;16.73;;;;;;;;;;5112871;28;20284;-77
2023/01/30 06:55:41;;;;;;;23.77;15.90;;;;;;;;;;5113653;28;20208;-77
2023/01/30 06:58:09;;;;;;;26.63;15.93;;;;;;;;;;5113447;28;20316;-77
2023/01/30 07:00:39;;;;;;;28.23;16.10;;;;;;;;;;5113343;28;20286;-77
2023/01/30 07:03:06;;;;;;;25.07;15.60;;;;;;;;;;5113585;28;20198;-77
2023/01/30 07:05:33;;;;;;;28.93;16.07;;;;;;;;;;5114012;28;20285;-76
2023/01/30 07:08:00;;;;;;;26.17;15.93;;;;;;;;;;5113399;28;20225;-76
2023/01/30 07:10:30;;;;;;;28.27;16.23;;;;;;;;;;5113062;28;20255;-76
2023/01/30 07:12:57;;;;;;;30.83;16.80;;;;;;;;;;5113118;28;20676;-77
2023/01/30 07:15:25;;;;;;;27.50;16.70;;;;;;;;;;5112874;28;20269;-76
2023/01/30 07:17:53;;;;;;;29.80;18.03;;;;;;;;;;5113068;28;20282;-77
2023/01/30 07:20:20;;;;;;;31.53;17.53;;;;;;;;;;5112134;28;20864;-76
2023/01/30 07:22:50;;;;;;;31.33;19.07;;;;;;;;;;5113383;27;20229;-77
2023/01/30 07:25:17;;;;;;;34.57;18.90;;;;;;;;;;5113063;28;20198;-76
2023/01/30 07:27:44;;;;;;;32.33;17.93;;;;;;;;;;5112477;28;20229;-77
2023/01/30 07:30:12;;;;;;;33.03;19.23;;;;;;;;;;5113121;28;20287;-76
2023/01/30 07:32:39;;;;;;;36.13;18.93;;;;;;;;;;5112759;28;20639;-78
2023/01/30 07:35:09;;;;;;;31.03;18.17;;;;;;;;;;5112945;28;20280;-77
2023/01/30 07:37:36;;;;;;;31.70;17.97;;;;;;;;;;5112922;28;20278;-76
2023/01/30 07:40:03;;;;;;;30.97;16.97;;;;;;;;;;5112837;28;20297;-76
2023/01/30 07:42:30;;;;;;;29.77;17.10;;;;;;;;;;5112558;28;20367;-77
2023/01/30 07:44:57;;;;;;;31.03;18.37;;;;;;;;;;5112445;28;20225;-76
2023/01/30 07:47:25;;;;;;;33.23;19.00;;;;;;;;;;5112852;28;20280;-77
2023/01/30 07:49:52;;;;;;;35.40;19.67;;;;;;;;;;5112641;28;20288;-76
2023/01/30 07:52:20;;;;;;;33.37;18.83;;;;;;;;;;5113107;28;20286;-77
2023/01/30 07:54:47;;;;;;;35.13;18.43;;;;;;;;;;5112310;28;20642;-77
2023/01/30 07:57:15;;;;;;;37.07;19.53;;;;;;;;;;5112082;28;20332;-76
2023/01/30 07:59:42;;;;;;;33.37;19.13;;;;;;;;;;5112535;28;20276;-76
2023/01/30 08:02:09;;;;;;;31.97;17.87;;;;;;;;;;5112626;28;20197;-77
2023/01/30 08:04:37;;;;;;;33.40;17.40;;;;;;;;;;5112216;28;20285;-77
2023/01/30 08:07:04;;;;;;;31.43;17.43;;;;;;;;;;5112394;28;20224;-77
2023/01/30 08:09:32;;;;;;;31.00;17.40;;;;;;;;;;5112598;28;20216;-76
2023/01/30 08:12:00;;;;;;;29.87;16.80;;;;;;;;;;5112261;28;20256;-77
2023/01/30 08:14:28;;;;;;;29.67;16.50;;;;;;;;;;5112427;28;20276;-76
2023/01/30 08:16:56;;;;;;;27.23;15.70;;;;;;;;;;5112020;28;20221;-76
2023/01/30 08:19:23;;;;;;;29.60;16.93;;;;;;;;;;5112331;28;20224;-76
2023/01/30 08:21:51;;;;;;;30.83;16.37;;;;;;;;;;5112249;28;20224;-76
2023/01/30 08:24:18;;;;;;;26.87;15.97;;;;;;;;;;5112465;28;20292;-77
2023/01/30 08:26:48;;;;;;;29.60;17.73;;;;;;;;;;5111790;28;20189;-76
2023/01/30 08:29:15;;;;;;;25.87;16.63;;;;;;;;;;5111824;28;20316;-77
2023/01/30 08:31:42;;;;;;;28.87;16.60;;;;;;;;;;5111565;28;20225;-76
2023/01/30 08:34:10;;;;;;;27.73;16.00;;;;;;;;;;5112063;28;20284;-76
2023/01/30 08:36:37;;;;;;;30.43;16.77;;;;;;;;;;5111741;28;20284;-77
2023/01/30 08:39:04;;;;;;;26.70;16.20;;;;;;;;;;5112219;28;20324;-76
2023/01/30 08:41:31;;;;;;;26.97;17.00;;;;;;;;;;5111709;28;20198;-76
2023/01/30 08:44:00;;;;;;;25.33;16.70;;;;;;;;;;5111947;28;20292;-77
2023/01/30 08:46:27;;;;;;;28.60;17.40;;;;;;;;;;5111525;28;20648;-77
2023/01/30 08:48:54;;;;;;;29.43;17.37;;;;;;;;;;5112262;28;20285;-77
2023/01/30 08:51:21;;;;;;;29.40;16.43;;;;;;;;;;5111742;28;20241;-76
2023/01/30 08:53:49;;;;;;;26.50;15.80;;;;;;;;;;5111808;28;20285;-77
2023/01/30 08:56:16;;;;;;;27.27;16.87;;;;;;;;;;5111441;28;20284;-76
2023/01/30 08:58:45;;;;;;;25.20;16.00;;;;;;;;;;5111882;28;20333;-76
2023/01/30 09:01:13;;;;;;;26.20;15.17;;;;;;;;;;5111765;28;20194;-77
2023/01/30 09:03:41;;;;;;;25.23;16.20;;;;;;;;;;5111583;28;20286;-77
2023/01/30 09:06:08;;;;;;;26.30;16.47;;;;;;;;;;5111513;28;20717;-77
2023/01/30 09:08:36;;;;;;;22.57;15.73;;;;;;;;;;5111661;28;20643;-76
2023/01/30 09:11:04;;;;;;;25.37;16.57;;;;;;;;;;5111175;28;20228;-77
2023/01/30 09:13:31;;;;;;;23.67;15.43;;;;;;;;;;5112273;28;20229;-76
2023/01/30 09:15:59;;;;;;;23.53;14.63;;;;;;;;;;5111646;28;20281;-76
2023/01/30 09:18:27;;;;;;;22.83;14.53;;;;;;;;;;5111601;28;20316;-77
2023/01/30 09:21:02;;;;;;;23.50;14.53;;;;;;;;;;5111283;28;20648;-77
2023/01/30 09:23:30;;;;;;;24.60;14.07;;;;;;;;;;5111468;28;20203;-78
2023/01/30 09:25:57;;;;;;;26.57;14.50;;;;;;;;;;5110929;28;20218;-77
2023/01/30 09:28:24;;;;;;;23.87;15.20;;;;;;;;;;5111123;28;20253;-77
2023/01/30 09:30:51;;;;;;;24.40;13.93;;;;;;;;;;5111653;28;20293;-76
2023/01/30 09:33:19;;;;;;;21.10;14.67;;;;;;;;;;5111299;28;20765;-77
2023/01/30 09:35:49;;;;;;;21.37;13.53;;;;;;;;;;5111397;28;20198;-77
2023/01/30 09:38:16;;;;;;;20.83;13.83;;;;;;;;;;5111628;28;20221;-77
2023/01/30 09:40:50;;;;;;;23.00;14.67;;;;;;;;;;5111197;28;20225;-77
2023/01/30 09:43:35;;;;;;;22.47;14.60;;;;;;;;;;5113047;28;20644;-77
2023/01/30 09:46:09;;;;;;;20.23;13.87;;;;;;;;;;5114641;28;20297;-77
2023/01/30 09:48:39;;;;;;;22.70;14.20;;;;;;;;;;5114638;28;20292;-77
2023/01/30 09:51:37;;;;;;;18.77;12.87;;;;;;;;;;5114993;28;20282;-77
2023/01/30 09:54:13;;;;;;;21.50;13.63;;;;;;;;;;5092781;28;20218;-77
2023/01/30 09:56:40;;;;;;;22.87;13.93;;;;;;;;;;5091729;28;20344;-77
2023/01/30 09:59:07;;;;;;;20.13;13.00;;;;;;;;;;5092140;28;20325;-77
2023/01/30 10:01:47;;;;;;;20.73;14.03;;;;;;;;;;5092036;28;20219;-78
2023/01/30 10:04:15;;;;;;;24.97;15.20;;;;;;;;;;5091914;28;20744;-78
2023/01/30 10:06:49;;;;;;;25.07;16.57;;;;;;;;;;5091835;28;20199;-78
2023/01/30 10:09:21;;;;;;;22.50;15.27;;;;;;;;;;5091915;28;20307;-77
2023/01/30 10:11:55;;;;;;;21.37;14.87;;;;;;;;;;5091438;28;20289;-78
2023/01/30 10:14:34;;;;;;;20.97;13.83;;;;;;;;;;5091713;28;20282;-77
2023/01/30 10:17:06;;;;;;;18.83;13.53;;;;;;;;;;5091516;28;20201;-77
2023/01/30 10:19:50;;;;;;;20.33;13.37;;;;;;;;;;5091580;28;20313;-78
2023/01/30 10:22:23;;;;;;;20.03;13.83;;;;;;;;;;5091597;28;20277;-77
2023/01/30 10:24:57;;;;;;;18.73;13.50;;;;;;;;;;5091569;28;20232;-77
2023/01/30 10:27:26;;;;;;;20.13;14.30;;;;;;;;;;5094906;28;20292;-77
2023/01/30 10:29:55;;;;;;;22.80;14.97;;;;;;;;;;5113744;28;20232;-77
2023/01/30 10:32:27;;;;;;;22.97;14.77;;;;;;;;;;5114248;28;20196;-77
2023/01/30 10:34:56;;;;;;;21.23;15.17;;;;;;;;;;5113949;27;20293;-78
2023/01/30 10:37:27;;;;;;;20.00;14.13;;;;;;;;;;5113641;28;20293;-78
2023/01/30 10:40:01;;;;;;;18.33;13.33;;;;;;;;;;5114007;28;20296;-78
2023/01/30 10:42:30;;;;;;;22.17;12.93;;;;;;;;;;5114148;28;20612;-78
2023/01/30 10:45:01;;;;;;;18.70;12.50;;;;;;;;;;5114150;28;20213;-77
2023/01/30 10:47:45;;;;;;;26.30;13.27;;;;;;;;;;5113940;28;20236;-77
2023/01/30 10:50:15;;;;;;;18.60;13.37;;;;;;;;;;5113993;28;20285;-78
2023/01/30 10:52:45;;;;;;;18.37;12.93;;;;;;;;;;5113687;28;20295;-77
2023/01/30 10:55:17;;;;;;;20.00;12.93;;;;;;;;;;5113711;28;20223;-78
2023/01/30 10:57:51;;;;;;;15.67;12.07;;;;;;;;;;5113712;28;20225;-77
2023/01/30 11:00:23;;;;;;;17.97;12.10;;;;;;;;;;5113852;28;20235;-77
2023/01/30 11:02:57;;;;;;;17.60;12.13;;;;;;;;;;5113994;28;20221;-76
2023/01/30 11:05:26;;;;;;;19.47;12.83;;;;;;;;;;5113793;28;20287;-77
2023/01/30 11:07:53;;;;;;;17.27;12.97;;;;;;;;;;5113137;28;20276;-76
2023/01/30 11:10:23;;;;;;;18.00;13.40;;;;;;;;;;5113455;28;20292;-77
2023/01/30 11:12:53;;;;;;;18.60;13.40;;;;;;;;;;5113591;28;20213;-77
2023/01/30 11:15:23;;;;;;;16.47;12.30;;;;;;;;;;5113182;28;20682;-77
2023/01/30 11:17:51;;;;;;;17.13;12.57;;;;;;;;;;5113220;28;20224;-76
2023/01/30 11:20:19;;;;;;;18.37;13.67;;;;;;;;;;5113269;28;20229;-77
2023/01/30 11:22:47;;;;;;;17.47;12.33;;;;;;;;;;5112959;28;20283;-78
2023/01/30 11:25:15;;;;;;;17.10;12.10;;;;;;;;;;5113452;28;20196;-78
2023/01/30 11:27:44;;;;;;;14.77;11.37;;;;;;;;;;5112492;28;20798;-77
2023/01/30 11:30:16;;;;;;;13.33;10.00;;;;;;;;;;5113134;28;20284;-77
2023/01/30 11:32:44;;;;;;;15.43;10.47;;;;;;;;;;5113265;28;20270;-76
2023/01/30 11:35:29;;;;;;;14.77;10.87;;;;;;;;;;5112697;28;20277;-77
2023/01/30 11:38:11;;;;;;;13.53;9.40;;;;;;;;;;5112403;28;20292;-75
2023/01/30 11:40:39;;;;;;;14.63;10.30;;;;;;;;;;5113225;28;20704;-75
2023/01/30 11:43:12;;;;;;;15.77;9.57;;;;;;;;;;5112882;28;20201;-75
2023/01/30 11:45:41;;;;;;;12.67;8.77;;;;;;;;;;5112897;28;20288;-77
2023/01/30 11:48:13;;;;;;;13.10;9.37;;;;;;;;;;5112880;28;20288;-78
2023/01/30 11:50:42;;;;;;;14.53;8.90;;;;;;;;;;5112460;27;20296;-77
2023/01/30 11:53:16;;;;;;;11.67;9.00;;;;;;;;;;5113106;28;20197;-76
2023/01/30 11:55:45;;;;;;;11.87;9.00;;;;;;;;;;5112512;28;20250;-77
2023/01/30 11:58:15;;;;;;;11.43;8.77;;;;;;;;;;5112483;27;20680;-77
2023/01/30 12:00:44;;;;;;;12.47;9.33;;;;;;;;;;5112297;28;20251;-77
2023/01/30 12:03:12;;;;;;;11.07;8.97;;;;;;;;;;5112315;28;20289;-77
2023/01/30 12:05:41;;;;;;;11.23;8.73;;;;;;;;;;5111604;28;20284;-78
2023/01/30 12:08:13;;;;;;;11.43;8.67;;;;;;;;;;5112405;28;20201;-77
2023/01/30 12:10:41;;;;;;;10.67;8.97;;;;;;;;;;5112432;28;20209;-77
2023/01/30 12:13:14;;;;;;;12.63;9.20;;;;;;;;;;5112285;28;20284;-77
2023/01/30 12:15:44;;;;;;;13.17;9.27;;;;;;;;;;5112026;28;20285;-77
2023/01/30 12:18:14;;;;;;;11.90;9.10;;;;;;;;;;5112182;28;20197;-77
2023/01/30 12:20:50;;;;;;;13.23;9.77;;;;;;;;;;5112273;28;20246;-78
2023/01/30 12:23:19;;;;;;;13.00;9.47;;;;;;;;;;5112013;28;20638;-76
2023/01/30 12:25:53;;;;;;;13.37;9.67;;;;;;;;;;5111903;28;20232;-77
2023/01/30 12:28:25;;;;;;;15.40;10.43;;;;;;;;;;5111858;28;20291;-77
2023/01/30 12:30:55;;;;;;;14.67;11.30;;;;;;;;;;5111927;28;20194;-77
2023/01/30 12:33:23;;;;;;;13.37;10.10;;;;;;;;;;5111902;28;20197;-77
2023/01/30 12:35:57;;;;;;;19.67;11.40;;;;;;;;;;5111619;28;20304;-76
2023/01/30 12:38:30;;;;;;;14.03;10.50;;;;;;;;;;5111992;28;20280;-77
2023/01/30 12:41:02;;;;;;;13.47;10.80;;;;;;;;;;5112029;28;20288;-77
2023/01/30 12:43:35;;;;;;;14.80;11.37;;;;;;;;;;5112301;28;20288;-78
2023/01/30 12:46:07;;;;;;;14.50;10.67;;;;;;;;;;5111833;28;20285;-77
2023/01/30 12:48:41;;;;;;;14.63;11.37;;;;;;;;;;5111604;28;20296;-77
2023/01/30 12:51:13;;;;;;;15.87;12.37;;;;;;;;;;5111886;28;20275;-77
2023/01/30 12:53:47;;;;;;;14.00;10.90;;;;;;;;;;5112048;28;20289;-77
2023/01/30 12:56:33;;;;;;;12.63;9.80;;;;;;;;;;5111686;28;20236;-76
2023/01/30 12:59:03;;;;;;;13.27;10.67;;;;;;;;;;5111591;28;20787;-77
2023/01/30 13:01:34;;;;;;;13.30;10.60;;;;;;;;;;5112003;28;20301;-77
2023/01/30 13:04:05;;;;;;;14.67;11.30;;;;;;;;;;5111722;28;20292;-76
2023/01/30 13:06:43;;;;;;;14.33;10.60;;;;;;;;;;5112164;28;20322;-77
2023/01/30 13:09:19;;;;;;;15.40;10.73;;;;;;;;;;5111764;28;20292;-77
2023/01/30 13:11:50;;;;;;;13.83;10.60;;;;;;;;;;5111566;28;20224;-76
2023/01/30 13:14:25;;;;;;;18.07;11.50;;;;;;;;;;5112016;28;20190;-77
2023/01/30 13:17:00;;;;;;;16.17;11.50;;;;;;;;;;5110988;28;20657;-76
2023/01/30 13:19:30;;;;;;;14.77;11.60;;;;;;;;;;5114934;28;20708;-77
2023/01/30 13:22:02;;;;;;;17.30;13.30;;;;;;;;;;5115521;28;20281;-77
2023/01/30 13:24:34;;;;;;;17.47;12.63;;;;;;;;;;5115628;28;20601;-78
2023/01/30 13:27:08;;;;;;;17.10;12.60;;;;;;;;;;5115441;28;20289;-77
2023/01/30 13:29:37;;;;;;;16.33;12.30;;;;;;;;;;5115403;28;20662;-76
2023/01/30 13:32:07;;;;;;;19.03;12.20;;;;;;;;;;5115150;28;20739;-77
2023/01/30 13:34:35;;;;;;;19.20;12.27;;;;;;;;;;5115176;28;20285;-76
2023/01/30 13:37:04;;;;;;;17.50;12.70;;;;;;;;;;5115131;28;20281;-76
2023/01/30 13:39:34;;;;;;;16.10;12.27;;;;;;;;;;5115437;28;20765;-77
2023/01/30 13:42:03;;;;;;;17.03;12.17;;;;;;;;;;5114951;28;20229;-77
2023/01/30 13:44:32;;;;;;;17.90;12.13;;;;;;;;;;5115553;28;20225;-76
2023/01/30 13:47:04;;;;;;;17.63;12.70;;;;;;;;;;5114557;28;20198;-77
2023/01/30 13:49:39;;;;;;;17.03;12.00;;;;;;;;;;5115180;28;20274;-77
2023/01/30 13:52:09;;;;;;;16.70;11.83;;;;;;;;;;5115239;28;20347;-77
2023/01/30 13:54:57;;;;;;;17.80;12.97;;;;;;;;;;5114815;28;20229;-76
2023/01/30 13:57:28;;;;;;;14.47;11.70;;;;;;;;;;5112913;28;20281;-76
2023/01/30 14:00:17;;;;;;;15.30;12.33;;;;;;;;;;5114688;28;20261;-77
2023/01/30 14:02:59;;;;;;;15.33;12.40;;;;;;;;;;5114696;28;20281;-77
2023/01/30 14:05:41;;;;;;;19.80;12.73;;;;;;;;;;5114837;28;20280;-77
2023/01/30 14:08:13;;;;;;;18.00;12.87;;;;;;;;;;5114301;28;20293;-77
2023/01/30 14:10:41;;;;;;;18.00;13.90;;;;;;;;;;5114587;28;20206;-76
2023/01/30 14:13:09;;;;;;;16.57;12.43;;;;;;;;;;5114286;28;20733;-77
2023/01/30 14:15:37;;;;;;;16.67;12.73;;;;;;;;;;5114317;28;20198;-77
2023/01/30 14:18:06;;;;;;;14.63;11.90;;;;;;;;;;5114509;28;20255;-77
2023/01/30 14:20:34;;;;;;;14.73;11.33;;;;;;;;;;5114367;28;20328;-76
2023/01/30 14:23:03;;;;;;;14.20;11.37;;;;;;;;;;5114349;28;20218;-77
2023/01/30 14:25:43;;;;;;;14.03;11.40;;;;;;;;;;5114470;28;20190;-77
2023/01/30 14:28:31;;;;;;;14.27;10.27;;;;;;;;;;5113981;27;20316;-77
2023/01/30 14:31:00;;;;;;;15.40;11.20;;;;;;;;;;5112215;28;20222;-78
2023/01/30 14:33:34;;;;;;;18.30;11.13;;;;;;;;;;5114230;28;20288;-77
2023/01/30 14:36:16;;;;;;;14.43;10.93;;;;;;;;;;5114118;28;20189;-77
2023/01/30 14:38:45;;;;;;;14.27;11.33;;;;;;;;;;5109645;28;20233;-77
2023/01/30 14:41:26;;;;;;;13.27;10.63;;;;;;;;;;5113874;28;20202;-77